Monday, June 18, 2018, 8:50 PM EDT
Back to Local

KBDR, Sikorsky Memorial Airport

Location: Stratford, CT, United States Lat: 41.167
Local Time: 8:50 PM EDT ( 0:50 GMT) Lon: -73.133
Time Zone: US/Eastern Elev: 9 ft

Show me the last for .
Show Decoded

2018-06-18 20:29 METAR KBDR 190029Z 30008G18KT 8SM -TSRA FEW033 SCT045 BKN060 26/20 A2982 RMK AO2
                 LTG DSNT W AND NW RAB27 TSE03B23 P0000 T02560200 =
2018-06-18 20:09 METAR KBDR 190009Z 23009KT 10SM VCTS CLR 24/18 A2979 RMK AO2 LTG DSNT W-N TSE03
                 T02390178 =
2018-06-18 19:52 METAR KBDR 182352Z 23010KT 10SM CLR 24/18 A2980 RMK AO2 LTG DSNT W AND NW SLP091
                 60000 T02440178 10289 20239 55010 =
2018-06-18 18:52 METAR KBDR 182252Z 23009KT 10SM CLR 24/18 A2979 RMK AO2 SLP087 T02390178 $ =
2018-06-18 17:52 METAR KBDR 182152Z 26007KT 10SM CLR 24/18 A2980 RMK AO2 SLP092 T02440183 $ =
2018-06-18 16:52 METAR KBDR 182052Z 20019G25KT 10SM CLR 27/18 A2983 RMK AO2 SLP101 60000
                 T02720183 56027 $ =
2018-06-18 15:52 METAR KBDR 181952Z 19018KT 10SM CLR 28/19 A2985 RMK AO2 SLP107 T02780189 =
2018-06-18 14:52 METAR KBDR 181852Z 19018KT 10SM CLR 28/19 A2988 RMK AO2 RAE1754 SLP117 P0000
                 T02780194 =
2018-06-18 13:52 METAR KBDR 181752Z 19015KT 10SM -RA CLR 29/19 A2991 RMK AO2 RAB11 SLP129 P0000
                 60000 T02890194 10294 20211 58021 =
2018-06-18 12:52 METAR KBDR 181652Z 20014KT 10SM CLR 29/20 A2994 RMK AO2 SLP139 T02890200 =
2018-06-18 11:52 METAR KBDR 181552Z 21009KT 10SM CLR 28/20 A2995 RMK AO2 SLP143 T02780200 =
2018-06-18 10:52 METAR KBDR 181452Z 22008KT 10SM CLR 26/19 A2997 RMK AO2 SLP150 T02610194 58015 =
2018-06-18 09:52 METAR KBDR 181352Z 23007KT 10SM CLR 24/19 A2999 RMK AO2 SLP155 T02440189 =
2018-06-18 08:52 METAR KBDR 181252Z 23006KT 10SM CLR 23/18 A3001 RMK AO2 SLP162 T02280183 =
2018-06-18 07:52 METAR KBDR 181152Z 22006KT 10SM CLR 21/18 A3002 RMK AO2 SLP165 T02110178 10211
                 20189 58006 =
2018-06-18 06:52 METAR KBDR 181052Z 23005KT 10SM CLR 21/17 A3002 RMK AO2 SLP166 T02060172 =
2018-06-18 05:52 METAR KBDR 180952Z AUTO 26003KT 10SM CLR 19/17 A3004 RMK AO2 SLP172 T01940172 =
2018-06-18 04:52 METAR KBDR 180852Z AUTO 25003KT 10SM CLR 19/17 A3004 RMK AO2 SLP171 T01940167
                 55007 =
2018-06-18 03:52 METAR KBDR 180752Z AUTO 23004KT 10SM CLR 20/17 A3004 RMK AO2 SLP171 T02000167 =
2018-06-18 02:52 METAR KBDR 180652Z AUTO 00000KT 10SM CLR 19/17 A3005 RMK AO2 SLP177 T01940167 =
2018-06-18 01:52 METAR KBDR 180552Z AUTO 00000KT 10SM CLR 19/17 A3006 RMK AO2 SLP179 T01940167
                 10250 20194 50000 =
2018-06-18 00:52 METAR KBDR 180452Z AUTO 22004KT 10SM CLR 21/17 A3007 RMK AO2 SLP181 T02060167
                 403000144 =
2018-06-17 23:52 METAR KBDR 180352Z AUTO 00000KT 10SM CLR 21/16 A3006 RMK AO2 SLP179 T02110156 =
2018-06-17 22:52 METAR KBDR 180252Z AUTO 21004KT 10SM CLR 22/16 A3006 RMK AO2 SLP179 T02220156
                 50000 =
2018-06-17 21:52 METAR KBDR 180152Z 21006KT 10SM CLR 23/15 A3006 RMK AO2 SLP180 T02280150 =
2018-06-17 20:52 METAR KBDR 180052Z 22005KT 10SM CLR 23/16 A3006 RMK AO2 SLP178 T02330156 =

Support USWX by starting your Amazon purchase here.